createdAt,value
2023-05-09T00:02:03.528Z,5.88
2023-05-09T00:04:30.890Z,6.13
2023-05-09T00:06:57.947Z,6.03
2023-05-09T00:09:26.092Z,5.57
2023-05-09T00:11:53.205Z,4.90
2023-05-09T00:14:20.244Z,6.20
2023-05-09T00:16:47.795Z,5.88
2023-05-09T00:19:14.856Z,6.57
2023-05-09T00:21:41.910Z,6.20
2023-05-09T00:24:09.246Z,6.07
2023-05-09T00:26:36.324Z,6.63
2023-05-09T00:29:03.312Z,6.38
2023-05-09T00:31:30.374Z,6.65
2023-05-09T00:33:57.507Z,6.68
2023-05-09T00:36:24.597Z,7.00
2023-05-09T00:38:51.624Z,6.15
2023-05-09T00:41:18.900Z,6.63
2023-05-09T00:43:46.013Z,5.82
2023-05-09T00:46:13.148Z,5.90
2023-05-09T00:48:40.751Z,6.57
2023-05-09T00:51:08.016Z,6.40
2023-05-09T00:53:35.264Z,6.25
2023-05-09T00:56:02.681Z,6.63
2023-05-09T00:58:30.381Z,6.40
2023-05-09T01:00:57.897Z,6.35
2023-05-09T01:03:25.327Z,7.10
2023-05-09T01:05:58.488Z,6.80
2023-05-09T01:08:37.292Z,6.10
2023-05-09T01:11:13.387Z,6.10
2023-05-09T01:13:52.740Z,6.68
2023-05-09T01:16:34.462Z,6.15
2023-05-09T01:19:04.088Z,6.53
2023-05-09T01:21:33.609Z,6.07
2023-05-09T01:24:21.705Z,6.65
2023-05-09T01:27:16.427Z,6.88
2023-05-09T01:29:47.918Z,6.07
2023-05-09T01:32:19.739Z,6.10
2023-05-09T01:34:50.066Z,6.75
2023-05-09T01:37:20.685Z,6.18
2023-05-09T01:39:50.826Z,6.20
2023-05-09T01:42:21.051Z,6.30
2023-05-09T01:44:49.297Z,6.40
2023-05-09T01:47:18.835Z,6.63
2023-05-09T01:49:47.980Z,6.47
2023-05-09T01:52:19.345Z,5.15
2023-05-09T01:54:48.048Z,5.15
2023-05-09T01:57:15.712Z,4.95
2023-05-09T01:59:45.366Z,4.78
2023-05-09T02:02:13.294Z,5.45
2023-05-09T02:04:43.716Z,5.78
2023-05-09T02:07:12.165Z,5.10
2023-05-09T02:09:39.292Z,5.93
2023-05-09T02:12:07.288Z,4.90
2023-05-09T02:14:34.501Z,5.10
2023-05-09T02:17:07.199Z,5.20
2023-05-09T02:19:36.226Z,4.60
2023-05-09T02:22:05.222Z,5.57
2023-05-09T02:24:37.048Z,5.25
2023-05-09T02:27:05.667Z,5.45
2023-05-09T02:29:40.785Z,4.80
2023-05-09T02:32:22.693Z,5.07
2023-05-09T02:34:52.757Z,5.13
2023-05-09T02:37:20.991Z,4.43
2023-05-09T02:39:48.538Z,3.85
2023-05-09T02:42:21.606Z,5.10
2023-05-09T02:44:48.630Z,5.55
2023-05-09T02:47:15.708Z,5.10
2023-05-09T02:49:42.800Z,5.35
2023-05-09T02:52:09.848Z,5.63
2023-05-09T02:54:36.900Z,5.90
2023-05-09T02:57:04.337Z,5.18
2023-05-09T02:59:32.232Z,5.40
2023-05-09T03:01:59.323Z,4.72
2023-05-09T03:04:26.384Z,5.40
2023-05-09T03:06:53.419Z,4.65
2023-05-09T03:09:20.618Z,5.88
2023-05-09T03:11:47.658Z,4.95
2023-05-09T03:14:15.660Z,5.38
2023-05-09T03:16:42.726Z,5.88
2023-05-09T03:19:09.721Z,6.85
2023-05-09T03:21:36.879Z,6.03
2023-05-09T03:24:04.981Z,5.90
2023-05-09T03:26:32.028Z,6.05
2023-05-09T03:28:59.388Z,6.00
2023-05-09T03:31:26.452Z,5.63
2023-05-09T03:33:53.614Z,6.85
2023-05-09T03:36:20.832Z,5.57
2023-05-09T03:38:47.897Z,5.82
2023-05-09T03:41:17.374Z,5.97
2023-05-09T03:43:44.608Z,5.05
2023-05-09T03:46:11.714Z,7.00
2023-05-09T03:48:38.751Z,5.55
2023-05-09T03:51:06.479Z,7.00
2023-05-09T03:53:33.582Z,6.40
2023-05-09T03:56:00.696Z,6.35
2023-05-09T03:58:28.449Z,5.93
2023-05-09T04:00:55.488Z,6.55
2023-05-09T04:03:22.619Z,5.93
2023-05-09T04:05:49.894Z,5.65
2023-05-09T04:08:17.028Z,5.53
2023-05-09T04:10:44.826Z,6.13
2023-05-09T04:13:11.925Z,5.97
2023-05-09T04:15:38.983Z,6.13
2023-05-09T04:18:06.541Z,5.13
2023-05-09T04:20:33.637Z,5.18
2023-05-09T04:23:00.681Z,5.50
2023-05-09T04:25:27.855Z,4.60
2023-05-09T04:27:55.102Z,4.18
2023-05-09T04:30:22.746Z,4.38
2023-05-09T04:32:50.145Z,4.47
2023-05-09T04:35:20.404Z,4.72
2023-05-09T04:37:47.975Z,5.30
2023-05-09T04:40:15.099Z,5.70
2023-05-09T04:42:42.546Z,6.05
2023-05-09T04:45:11.974Z,6.00
2023-05-09T04:47:39.721Z,5.63
2023-05-09T04:50:08.269Z,5.65
2023-05-09T04:52:35.579Z,4.97
2023-05-09T04:55:02.640Z,4.63
2023-05-09T04:57:30.039Z,5.03
2023-05-09T04:59:57.138Z,4.97
2023-05-09T05:02:25.472Z,4.88
2023-05-09T05:04:56.109Z,5.32
2023-05-09T05:07:27.403Z,4.82
2023-05-09T05:09:54.449Z,4.95
2023-05-09T05:12:22.099Z,5.85
2023-05-09T05:14:49.274Z,5.55
2023-05-09T05:17:18.450Z,5.38
2023-05-09T05:19:45.576Z,5.53
2023-05-09T05:22:12.760Z,5.32
2023-05-09T05:24:39.864Z,6.05
2023-05-09T05:27:06.884Z,6.47
2023-05-09T05:29:33.926Z,6.10
2023-05-09T05:32:01.058Z,5.55
2023-05-09T05:34:28.136Z,5.60
2023-05-09T05:36:55.118Z,5.55
2023-05-09T05:39:22.155Z,5.93
2023-05-09T05:41:49.317Z,6.32
2023-05-09T05:44:16.387Z,5.80
2023-05-09T05:46:44.041Z,5.95
2023-05-09T05:49:11.114Z,6.18
2023-05-09T05:51:56.263Z,6.15
2023-05-09T05:54:23.982Z,5.05
2023-05-09T05:56:51.120Z,6.13
2023-05-09T05:59:18.161Z,5.68
2023-05-09T06:01:45.245Z,5.18
2023-05-09T06:04:12.377Z,5.55
2023-05-09T06:06:39.561Z,5.38
2023-05-09T06:09:06.625Z,5.85
2023-05-09T06:11:33.715Z,6.22
2023-05-09T06:14:00.735Z,6.93
2023-05-09T06:16:28.407Z,5.60
2023-05-09T06:18:56.153Z,6.35
2023-05-09T06:21:23.897Z,6.28
2023-05-09T06:24:07.741Z,4.90
2023-05-09T06:26:37.971Z,5.90
2023-05-09T06:29:06.564Z,5.00
2023-05-09T06:31:39.190Z,5.95
2023-05-09T06:34:06.653Z,5.53
2023-05-09T06:36:34.199Z,5.43
2023-05-09T06:39:01.883Z,5.03
2023-05-09T06:41:29.019Z,5.10
2023-05-09T06:43:56.503Z,5.45
2023-05-09T06:46:23.588Z,5.35
2023-05-09T06:48:50.633Z,5.55
2023-05-09T06:51:17.768Z,6.05
2023-05-09T06:53:44.793Z,6.28
2023-05-09T06:56:12.791Z,5.40
2023-05-09T06:58:40.098Z,5.63
2023-05-09T07:01:07.302Z,5.63
2023-05-09T07:03:34.435Z,4.68
2023-05-09T07:06:01.929Z,5.25
2023-05-09T07:08:29.080Z,5.43
2023-05-09T07:10:56.175Z,6.05
2023-05-09T07:13:23.682Z,5.35
2023-05-09T07:15:50.863Z,6.10
2023-05-09T07:18:17.910Z,6.80
2023-05-09T07:20:45.059Z,6.07
2023-05-09T07:23:12.167Z,5.90
2023-05-09T07:25:39.210Z,5.78
2023-05-09T07:28:06.899Z,6.38
2023-05-09T07:30:33.974Z,5.57
2023-05-09T07:33:01.761Z,5.70
2023-05-09T07:35:28.989Z,5.43
2023-05-09T07:37:56.134Z,6.15
2023-05-09T07:40:23.192Z,5.53
2023-05-09T07:42:51.847Z,5.22
2023-05-09T07:45:20.009Z,6.30
2023-05-09T07:47:49.103Z,6.47
2023-05-09T07:50:17.405Z,6.47
2023-05-09T07:52:44.468Z,7.30
2023-05-09T07:55:12.744Z,6.75
2023-05-09T07:57:40.262Z,6.55
2023-05-09T08:00:09.103Z,7.28
2023-05-09T08:02:36.444Z,7.25
2023-05-09T08:05:03.696Z,7.13
2023-05-09T08:07:30.731Z,6.53
2023-05-09T08:09:58.262Z,6.63
2023-05-09T08:12:25.275Z,7.00
2023-05-09T08:14:52.316Z,9.07
2023-05-09T08:17:19.935Z,6.97
2023-05-09T08:19:47.041Z,7.10
2023-05-09T08:22:20.810Z,6.78
2023-05-09T08:27:15.778Z,6.97
2023-05-09T08:29:43.588Z,6.93
2023-05-09T08:32:10.664Z,7.07
2023-05-09T08:34:37.854Z,7.15
2023-05-09T08:37:05.281Z,7.50
2023-05-09T08:39:35.079Z,7.28
2023-05-09T08:42:02.964Z,7.18
2023-05-09T08:44:31.761Z,6.45
2023-05-09T08:47:03.171Z,6.78
2023-05-09T08:49:30.802Z,7.88
2023-05-09T08:51:58.378Z,7.18
2023-05-09T08:54:25.539Z,7.28
2023-05-09T08:56:52.952Z,7.20
2023-05-09T08:59:20.110Z,7.20
2023-05-09T09:01:48.431Z,7.85
2023-05-09T09:04:15.595Z,6.97
2023-05-09T09:06:43.455Z,7.45
2023-05-09T09:09:14.522Z,7.40
2023-05-09T09:11:43.074Z,6.85
2023-05-09T09:14:16.433Z,7.32
2023-05-09T09:16:45.304Z,7.30
2023-05-09T09:19:14.221Z,7.63
2023-05-09T09:21:43.384Z,7.13
2023-05-09T09:24:14.170Z,6.88
2023-05-09T09:26:49.227Z,7.35
2023-05-09T09:29:18.771Z,6.80
2023-05-09T09:31:47.279Z,7.50
2023-05-09T09:34:21.615Z,8.13
2023-05-09T09:36:49.008Z,6.50
2023-05-09T09:39:16.620Z,6.97
2023-05-09T09:41:45.226Z,7.30
2023-05-09T09:44:17.390Z,7.43
2023-05-09T09:46:52.264Z,6.45
2023-05-09T09:49:23.408Z,6.75
2023-05-09T09:51:58.370Z,7.40
2023-05-09T09:54:29.116Z,7.05
2023-05-09T09:56:56.867Z,6.78
2023-05-09T09:59:26.889Z,6.60
2023-05-09T10:01:57.211Z,6.68
2023-05-09T10:04:25.253Z,6.85
2023-05-09T10:07:00.037Z,7.15
2023-05-09T10:09:28.301Z,7.60
2023-05-09T10:11:57.318Z,6.90
2023-05-09T10:14:26.571Z,6.35
2023-05-09T10:16:57.767Z,6.32
2023-05-09T10:19:27.622Z,6.72
2023-05-09T10:21:57.740Z,6.70
2023-05-09T10:24:34.579Z,7.38
2023-05-09T10:27:09.836Z,6.93
2023-05-09T10:29:41.816Z,6.72
2023-05-09T10:32:18.004Z,5.95
2023-05-09T10:34:51.862Z,6.63
2023-05-09T10:37:20.573Z,6.75
2023-05-09T10:39:53.415Z,6.40
2023-05-09T10:42:20.804Z,7.33
2023-05-09T10:44:48.508Z,6.93
2023-05-09T10:47:16.393Z,6.68
2023-05-09T10:49:44.714Z,6.95
2023-05-09T10:52:12.646Z,6.32
2023-05-09T10:54:39.856Z,6.20
2023-05-09T10:57:10.112Z,6.30
2023-05-09T10:59:42.393Z,6.90
2023-05-09T11:02:19.408Z,7.05
2023-05-09T11:04:47.156Z,6.82
2023-05-09T11:07:25.977Z,6.85
2023-05-09T11:10:18.255Z,6.63
2023-05-09T11:12:59.435Z,6.38
2023-05-09T11:15:30.166Z,6.28
2023-05-09T11:18:08.087Z,7.93
2023-05-09T11:20:36.118Z,7.13
2023-05-09T11:23:07.181Z,7.47
2023-05-09T11:25:34.422Z,7.28
2023-05-09T11:28:02.177Z,7.07
2023-05-09T11:30:44.627Z,6.57
2023-05-09T11:33:30.425Z,7.05
2023-05-09T11:36:19.014Z,6.70
2023-05-09T11:38:47.586Z,7.43
2023-05-09T11:41:15.859Z,6.65
2023-05-09T11:43:46.923Z,6.30
2023-05-09T11:46:14.137Z,6.93
2023-05-09T11:48:42.484Z,7.10
2023-05-09T11:51:18.438Z,6.90
2023-05-09T11:53:47.330Z,6.80
2023-05-09T11:56:15.083Z,7.45
2023-05-09T11:58:42.743Z,7.00
2023-05-09T12:01:12.408Z,6.95
2023-05-09T12:03:46.802Z,6.93
2023-05-09T12:06:21.308Z,6.15
2023-05-09T12:08:48.952Z,6.90
2023-05-09T12:11:15.995Z,7.10
2023-05-09T12:13:50.313Z,7.55
2023-05-09T12:16:18.811Z,5.97
2023-05-09T12:18:53.264Z,6.97
2023-05-09T12:21:22.141Z,6.22
2023-05-09T12:23:51.688Z,7.00
2023-05-09T12:26:22.397Z,7.15
2023-05-09T12:28:50.466Z,6.47
2023-05-09T12:31:18.444Z,6.20
2023-05-09T12:33:46.018Z,7.25
2023-05-09T12:36:13.929Z,6.60
2023-05-09T12:38:41.181Z,6.80
2023-05-09T12:41:29.888Z,6.28
2023-05-09T12:43:58.219Z,6.63
2023-05-09T12:46:26.072Z,6.72
2023-05-09T12:48:54.549Z,7.22
2023-05-09T12:51:22.741Z,6.97
2023-05-09T12:53:50.112Z,7.25
2023-05-09T12:56:19.219Z,7.28
2023-05-09T12:58:51.952Z,6.63
2023-05-09T13:01:23.971Z,6.83
2023-05-09T13:04:04.752Z,6.43
2023-05-09T13:06:32.634Z,7.28
2023-05-09T13:09:06.127Z,6.45
2023-05-09T13:14:00.273Z,6.22
2023-05-09T13:16:27.967Z,6.80
2023-05-09T13:18:55.072Z,6.25
2023-05-09T13:21:22.134Z,6.60
2023-05-09T13:23:50.362Z,7.05
2023-05-09T13:26:17.499Z,6.90
2023-05-09T13:28:45.007Z,7.40
2023-05-09T13:31:12.074Z,7.30
2023-05-09T13:33:39.377Z,7.25
2023-05-09T13:36:07.991Z,7.15
2023-05-09T13:38:39.034Z,7.15
2023-05-09T13:41:09.988Z,6.65
2023-05-09T13:43:37.795Z,8.05
2023-05-09T13:46:04.948Z,6.93
2023-05-09T13:48:32.218Z,7.65
2023-05-09T13:51:00.592Z,7.20
2023-05-09T13:53:27.782Z,7.15
2023-05-09T13:55:54.828Z,7.00
2023-05-09T13:58:22.064Z,7.38
2023-05-09T14:00:49.153Z,7.35
2023-05-09T14:03:16.265Z,7.70
2023-05-09T14:05:43.610Z,8.50
2023-05-09T14:08:11.418Z,7.93
2023-05-09T14:10:38.435Z,7.55
2023-05-09T14:13:05.670Z,6.47
2023-05-09T14:15:35.504Z,7.30
2023-05-09T14:18:02.649Z,7.38
2023-05-09T14:20:29.757Z,7.65
2023-05-09T14:23:00.030Z,6.93
2023-05-09T14:25:27.569Z,7.65
2023-05-09T14:27:54.618Z,7.22
2023-05-09T14:30:21.907Z,6.85
2023-05-09T14:32:49.151Z,6.97
2023-05-09T14:35:16.517Z,7.25
2023-05-09T14:37:43.745Z,7.90
2023-05-09T14:40:11.085Z,6.93
2023-05-09T14:42:38.296Z,7.68
2023-05-09T14:45:07.547Z,7.60
2023-05-09T14:47:34.734Z,7.30
2023-05-09T14:50:02.302Z,6.85
2023-05-09T14:52:29.343Z,7.40
2023-05-09T14:54:56.585Z,7.45
2023-05-09T14:57:24.257Z,7.70
2023-05-09T14:59:51.419Z,6.75
2023-05-09T15:02:18.499Z,7.63
2023-05-09T15:04:45.637Z,7.07
2023-05-09T15:07:12.828Z,6.75
2023-05-09T15:09:39.914Z,6.68
2023-05-09T15:12:07.168Z,7.25
2023-05-09T15:14:34.235Z,7.68
2023-05-09T15:17:04.424Z,7.25
2023-05-09T15:19:31.894Z,6.90
2023-05-09T15:22:00.600Z,6.97
2023-05-09T15:24:27.651Z,6.97
2023-05-09T15:26:54.784Z,7.78
2023-05-09T15:29:24.567Z,7.25
2023-05-09T15:31:51.605Z,7.20
2023-05-09T15:34:18.980Z,7.22
2023-05-09T15:36:46.242Z,7.10
2023-05-09T15:39:13.408Z,6.88
2023-05-09T15:41:40.481Z,7.45
2023-05-09T15:44:07.665Z,7.28
2023-05-09T15:46:34.918Z,7.38
2023-05-09T15:49:02.113Z,7.55
2023-05-09T15:51:30.357Z,7.10
2023-05-09T15:53:57.420Z,6.60
2023-05-09T15:56:24.514Z,6.60
2023-05-09T15:58:51.626Z,6.63
2023-05-09T16:01:19.601Z,6.68
2023-05-09T16:03:46.860Z,7.35
2023-05-09T16:06:14.482Z,7.20
2023-05-09T16:08:41.490Z,6.95
2023-05-09T16:11:09.037Z,7.22
2023-05-09T16:13:36.342Z,7.22
2023-05-09T16:16:03.955Z,6.75
2023-05-09T16:18:31.734Z,7.22
2023-05-09T16:20:59.900Z,6.65
2023-05-09T16:23:27.004Z,7.47
2023-05-09T16:25:54.173Z,6.88
2023-05-09T16:28:23.819Z,7.55
2023-05-09T16:30:54.251Z,7.07
2023-05-09T16:33:21.301Z,7.00
2023-05-09T16:35:48.459Z,7.43
2023-05-09T16:38:15.641Z,7.55
2023-05-09T16:40:42.990Z,6.68
2023-05-09T16:43:10.178Z,8.00
2023-05-09T16:45:37.236Z,6.65
2023-05-09T16:48:05.016Z,6.88
2023-05-09T16:50:32.278Z,7.10
2023-05-09T16:52:59.382Z,7.28
2023-05-09T16:55:26.515Z,6.70
2023-05-09T16:57:53.537Z,7.00
2023-05-09T17:00:21.221Z,7.53
2023-05-09T17:02:48.366Z,7.78
2023-05-09T17:05:15.520Z,7.30
2023-05-09T17:07:42.620Z,6.75
2023-05-09T17:10:10.125Z,7.57
2023-05-09T17:12:39.074Z,7.55
2023-05-09T17:15:07.736Z,7.82
2023-05-09T17:17:35.492Z,7.38
2023-05-09T17:20:02.753Z,7.63
2023-05-09T17:22:29.866Z,7.45
2023-05-09T17:24:57.780Z,8.45
2023-05-09T17:27:25.026Z,8.02
2023-05-09T17:29:52.147Z,7.75
2023-05-09T17:32:19.206Z,7.10
2023-05-09T17:34:46.283Z,7.38
2023-05-09T17:37:13.456Z,7.88
2023-05-09T17:39:42.454Z,7.18
2023-05-09T17:42:09.946Z,7.78
2023-05-09T17:44:37.878Z,7.85
2023-05-09T17:47:04.965Z,7.95
2023-05-09T17:49:32.154Z,8.15
2023-05-09T17:52:00.192Z,7.43
2023-05-09T17:54:27.355Z,6.90
2023-05-09T17:56:59.301Z,6.97
2023-05-09T17:59:26.426Z,7.43
2023-05-09T18:01:54.581Z,7.47
2023-05-09T18:04:22.188Z,7.55
2023-05-09T18:06:50.126Z,7.00
2023-05-09T18:09:17.736Z,6.82
2023-05-09T18:11:44.882Z,7.68
2023-05-09T18:14:13.181Z,7.95
2023-05-09T18:16:40.254Z,7.75
2023-05-09T18:19:07.476Z,7.15
2023-05-09T18:21:34.670Z,7.53
2023-05-09T18:24:01.699Z,6.90
2023-05-09T18:26:29.261Z,6.78
2023-05-09T18:28:56.431Z,7.82
2023-05-09T18:31:23.559Z,7.47
2023-05-09T18:33:50.916Z,7.22
2023-05-09T18:36:18.895Z,7.88
2023-05-09T18:38:47.006Z,7.60
2023-05-09T18:41:16.144Z,6.85
2023-05-09T18:43:46.398Z,7.63
2023-05-09T18:46:21.807Z,7.82
2023-05-09T18:48:51.519Z,7.32
2023-05-09T18:51:19.680Z,7.00
2023-05-09T18:53:47.989Z,8.15
2023-05-09T18:56:15.160Z,7.15
2023-05-09T18:58:42.180Z,7.57
2023-05-09T19:01:11.909Z,7.68
2023-05-09T19:03:46.135Z,7.47
2023-05-09T19:06:14.564Z,6.97
2023-05-09T19:08:43.472Z,8.15
2023-05-09T19:11:12.047Z,7.40
2023-05-09T19:13:41.514Z,7.45
2023-05-09T19:16:09.379Z,7.03
2023-05-09T19:18:36.629Z,7.40
2023-05-09T19:23:49.621Z,7.70
2023-05-09T19:26:18.929Z,7.28
2023-05-09T19:28:48.971Z,7.43
2023-05-09T19:31:16.490Z,7.10
2023-05-09T19:33:45.860Z,6.93
2023-05-09T19:36:13.310Z,7.25
2023-05-09T19:38:41.408Z,7.75
2023-05-09T19:41:08.734Z,7.68
2023-05-09T19:43:36.482Z,8.32
2023-05-09T19:46:04.036Z,8.30
2023-05-09T19:48:32.020Z,7.93
2023-05-09T19:50:59.682Z,7.43
2023-05-09T19:53:26.863Z,6.78
2023-05-09T19:55:54.593Z,8.27
2023-05-09T19:58:22.364Z,7.20
2023-05-09T20:00:50.203Z,8.55
2023-05-09T20:03:17.529Z,7.15
2023-05-09T20:08:29.878Z,7.45
2023-05-09T20:10:57.535Z,7.53
2023-05-09T20:13:24.595Z,7.60
2023-05-09T20:15:51.635Z,7.72
2023-05-09T20:18:18.849Z,8.45
2023-05-09T20:20:45.945Z,8.32
2023-05-09T20:23:13.227Z,7.20
2023-05-09T20:25:40.653Z,8.77
2023-05-09T20:28:07.626Z,7.40
2023-05-09T20:30:34.539Z,8.65
2023-05-09T20:33:01.887Z,7.60
2023-05-09T20:35:29.058Z,7.78
2023-05-09T20:37:56.184Z,8.25
2023-05-09T20:40:23.656Z,7.38
2023-05-09T20:42:51.326Z,7.18
2023-05-09T20:45:18.316Z,7.78
2023-05-09T20:47:45.434Z,7.40
2023-05-09T20:50:12.478Z,8.93
2023-05-09T20:52:39.425Z,7.07
2023-05-09T20:55:06.895Z,7.80
2023-05-09T20:57:34.210Z,8.35
2023-05-09T21:00:01.171Z,7.78
2023-05-09T21:02:28.502Z,7.25
2023-05-09T21:04:55.584Z,7.75
2023-05-09T21:07:22.653Z,7.90
2023-05-09T21:09:51.014Z,8.23
2023-05-09T21:12:18.159Z,7.97
2023-05-09T21:14:45.175Z,7.38
2023-05-09T21:17:12.546Z,8.23
2023-05-09T21:19:39.538Z,7.47
2023-05-09T21:22:06.507Z,8.35
2023-05-09T21:24:33.642Z,7.40
2023-05-09T21:27:00.599Z,8.48
2023-05-09T21:29:27.543Z,8.27
2023-05-09T21:31:54.577Z,8.00
2023-05-09T21:34:21.792Z,8.43
2023-05-09T21:36:48.786Z,7.95
2023-05-09T21:39:15.804Z,8.15
2023-05-09T21:41:43.177Z,9.48
2023-05-09T21:44:11.473Z,8.73
2023-05-09T21:46:38.716Z,7.40
2023-05-09T21:49:06.401Z,8.02
2023-05-09T21:51:35.130Z,8.30
2023-05-09T21:54:02.259Z,8.30
2023-05-09T21:56:29.893Z,9.70
2023-05-09T21:58:56.910Z,7.88
2023-05-09T22:01:23.919Z,8.85
2023-05-09T22:03:51.891Z,8.45
2023-05-09T22:06:19.013Z,8.20
2023-05-09T22:08:46.088Z,6.82
2023-05-09T22:11:14.741Z,8.05
2023-05-09T22:13:42.696Z,8.02
2023-05-09T22:16:09.990Z,7.38
2023-05-09T22:18:37.412Z,8.30
2023-05-09T22:21:09.930Z,8.48
2023-05-09T22:23:36.898Z,8.48
2023-05-09T22:26:03.922Z,8.57
2023-05-09T22:28:31.204Z,7.88
2023-05-09T22:30:58.191Z,8.10
2023-05-09T22:33:25.137Z,8.68
2023-05-09T22:35:52.194Z,8.15
2023-05-09T22:38:19.164Z,7.57
2023-05-09T22:40:46.139Z,8.23
2023-05-09T22:43:13.399Z,8.68
2023-05-09T22:45:40.592Z,8.23
2023-05-09T22:48:08.009Z,7.88
2023-05-09T22:50:35.525Z,8.95
2023-05-09T22:53:02.741Z,8.50
2023-05-09T22:55:29.859Z,8.30
2023-05-09T22:57:57.216Z,8.88
2023-05-09T23:00:24.323Z,8.95
2023-05-09T23:02:51.481Z,8.43
2023-05-09T23:05:19.039Z,8.02
2023-05-09T23:07:46.111Z,7.18
2023-05-09T23:10:13.215Z,8.23
2023-05-09T23:12:40.642Z,7.68
2023-05-09T23:15:08.363Z,8.32
2023-05-09T23:17:35.797Z,8.48
2023-05-09T23:20:04.264Z,8.07
2023-05-09T23:22:31.698Z,8.50
2023-05-09T23:25:01.072Z,9.13
2023-05-09T23:27:28.654Z,8.65
2023-05-09T23:29:55.819Z,8.25
2023-05-09T23:32:23.005Z,9.30
2023-05-09T23:34:50.094Z,8.73
2023-05-09T23:37:17.530Z,8.75
2023-05-09T23:39:55.603Z,9.50
2023-05-09T23:42:22.622Z,9.27
2023-05-09T23:44:49.697Z,8.68
2023-05-09T23:47:16.752Z,8.98
2023-05-09T23:49:43.882Z,8.63
2023-05-09T23:52:10.978Z,8.57
2023-05-09T23:54:38.887Z,8.63
2023-05-09T23:57:06.078Z,8.60
2023-05-09T23:59:33.238Z,9.18
